sensor_id;sensor_type;location;lat;lon;timestamp;P1;durP1;ratioP1;P2;durP2;ratioP2
53479;SDS011;56133;51.012;-1.648;2022-12-07T00:01:23;60.20;;;31.38;;
53479;SDS011;56133;51.012;-1.648;2022-12-07T00:03:52;62.67;;;27.77;;
53479;SDS011;56133;51.012;-1.648;2022-12-07T00:06:19;60.40;;;27.67;;
53479;SDS011;56133;51.012;-1.648;2022-12-07T00:08:45;63.35;;;29.05;;
53479;SDS011;56133;51.012;-1.648;2022-12-07T00:11:18;67.45;;;32.22;;
53479;SDS011;56133;51.012;-1.648;2022-12-07T00:13:46;61.33;;;29.70;;
53479;SDS011;56133;51.012;-1.648;2022-12-07T00:16:17;63.85;;;29.08;;
53479;SDS011;56133;51.012;-1.648;2022-12-07T00:18:43;67.05;;;33.03;;
53479;SDS011;56133;51.012;-1.648;2022-12-07T00:21:11;63.00;;;31.85;;
53479;SDS011;56133;51.012;-1.648;2022-12-07T00:23:41;60.88;;;27.50;;
53479;SDS011;56133;51.012;-1.648;2022-12-07T00:26:15;55.72;;;24.70;;
53479;SDS011;56133;51.012;-1.648;2022-12-07T00:29:05;55.38;;;26.17;;
53479;SDS011;56133;51.012;-1.648;2022-12-07T00:31:34;56.33;;;26.25;;
53479;SDS011;56133;51.012;-1.648;2022-12-07T00:34:04;65.18;;;27.88;;
53479;SDS011;56133;51.012;-1.648;2022-12-07T00:36:31;65.18;;;27.88;;
53479;SDS011;56133;51.012;-1.648;2022-12-07T00:39:00;72.85;;;28.20;;
53479;SDS011;56133;51.012;-1.648;2022-12-07T00:41:26;61.17;;;25.13;;
53479;SDS011;56133;51.012;-1.648;2022-12-07T00:43:53;55.05;;;26.13;;
53479;SDS011;56133;51.012;-1.648;2022-12-07T00:46:19;50.83;;;24.55;;
53479;SDS011;56133;51.012;-1.648;2022-12-07T00:48:46;56.28;;;25.63;;
53479;SDS011;56133;51.012;-1.648;2022-12-07T00:51:13;53.00;;;23.70;;
53479;SDS011;56133;51.012;-1.648;2022-12-07T00:53:39;48.55;;;23.40;;
53479;SDS011;56133;51.012;-1.648;2022-12-07T00:56:06;52.92;;;24.80;;
53479;SDS011;56133;51.012;-1.648;2022-12-07T00:58:36;52.00;;;23.92;;
53479;SDS011;56133;51.012;-1.648;2022-12-07T01:01:02;48.47;;;23.00;;
53479;SDS011;56133;51.012;-1.648;2022-12-07T01:03:29;50.97;;;22.95;;
53479;SDS011;56133;51.012;-1.648;2022-12-07T01:05:55;48.35;;;23.25;;
53479;SDS011;56133;51.012;-1.648;2022-12-07T01:08:21;47.35;;;22.60;;
53479;SDS011;56133;51.012;-1.648;2022-12-07T01:10:47;49.58;;;23.30;;
53479;SDS011;56133;51.012;-1.648;2022-12-07T01:13:13;50.90;;;22.75;;
53479;SDS011;56133;51.012;-1.648;2022-12-07T01:15:42;53.03;;;22.63;;
53479;SDS011;56133;51.012;-1.648;2022-12-07T01:18:09;48.38;;;21.63;;
53479;SDS011;56133;51.012;-1.648;2022-12-07T01:20:35;44.17;;;22.45;;
53479;SDS011;56133;51.012;-1.648;2022-12-07T01:23:02;44.47;;;22.05;;
53479;SDS011;56133;51.012;-1.648;2022-12-07T01:25:27;50.65;;;23.23;;
53479;SDS011;56133;51.012;-1.648;2022-12-07T01:27:53;47.20;;;21.92;;
53479;SDS011;56133;51.012;-1.648;2022-12-07T01:30:18;42.40;;;21.92;;
53479;SDS011;56133;51.012;-1.648;2022-12-07T01:32:44;48.45;;;21.80;;
53479;SDS011;56133;51.012;-1.648;2022-12-07T01:35:09;50.60;;;23.55;;
53479;SDS011;56133;51.012;-1.648;2022-12-07T01:37:35;45.05;;;21.30;;
53479;SDS011;56133;51.012;-1.648;2022-12-07T01:40:02;48.72;;;22.70;;
53479;SDS011;56133;51.012;-1.648;2022-12-07T01:42:29;48.90;;;22.52;;
53479;SDS011;56133;51.012;-1.648;2022-12-07T01:47:57;46.10;;;21.98;;
53479;SDS011;56133;51.012;-1.648;2022-12-07T01:50:27;47.13;;;21.35;;
53479;SDS011;56133;51.012;-1.648;2022-12-07T01:52:56;50.33;;;22.75;;
53479;SDS011;56133;51.012;-1.648;2022-12-07T01:55:23;49.88;;;22.23;;
53479;SDS011;56133;51.012;-1.648;2022-12-07T01:57:49;44.83;;;21.77;;
53479;SDS011;56133;51.012;-1.648;2022-12-07T02:00:17;50.55;;;23.33;;
53479;SDS011;56133;51.012;-1.648;2022-12-07T02:02:44;50.50;;;23.80;;
53479;SDS011;56133;51.012;-1.648;2022-12-07T02:05:13;53.40;;;23.00;;
53479;SDS011;56133;51.012;-1.648;2022-12-07T02:07:39;49.15;;;22.52;;
53479;SDS011;56133;51.012;-1.648;2022-12-07T02:10:38;45.05;;;22.92;;
53479;SDS011;56133;51.012;-1.648;2022-12-07T02:18:47;46.38;;;23.10;;
53479;SDS011;56133;51.012;-1.648;2022-12-07T02:21:43;51.00;;;24.38;;
53479;SDS011;56133;51.012;-1.648;2022-12-07T02:30:05;43.60;;;22.38;;
53479;SDS011;56133;51.012;-1.648;2022-12-07T02:35:06;46.17;;;21.88;;
53479;SDS011;56133;51.012;-1.648;2022-12-07T02:40:11;49.47;;;22.65;;
53479;SDS011;56133;51.012;-1.648;2022-12-07T02:42:44;46.28;;;21.88;;
53479;SDS011;56133;51.012;-1.648;2022-12-07T02:45:15;46.28;;;21.88;;
53479;SDS011;56133;51.012;-1.648;2022-12-07T02:47:45;42.13;;;21.23;;
53479;SDS011;56133;51.012;-1.648;2022-12-07T02:50:17;46.35;;;22.92;;
53479;SDS011;56133;51.012;-1.648;2022-12-07T02:52:44;51.05;;;24.00;;
53479;SDS011;56133;51.012;-1.648;2022-12-07T02:55:10;49.38;;;24.50;;
53479;SDS011;56133;51.012;-1.648;2022-12-07T02:57:42;45.60;;;21.40;;
53479;SDS011;56133;51.012;-1.648;2022-12-07T03:00:14;44.55;;;21.13;;
53479;SDS011;56133;51.012;-1.648;2022-12-07T03:11:22;44.67;;;21.08;;
53479;SDS011;56133;51.012;-1.648;2022-12-07T03:16:56;42.15;;;20.65;;
53479;SDS011;56133;51.012;-1.648;2022-12-07T03:19:26;42.45;;;21.20;;
53479;SDS011;56133;51.012;-1.648;2022-12-07T03:22:06;44.08;;;21.02;;
53479;SDS011;56133;51.012;-1.648;2022-12-07T03:24:45;46.80;;;20.70;;
53479;SDS011;56133;51.012;-1.648;2022-12-07T03:27:31;44.35;;;20.70;;
53479;SDS011;56133;51.012;-1.648;2022-12-07T03:30:04;42.88;;;19.98;;
53479;SDS011;56133;51.012;-1.648;2022-12-07T03:32:44;39.88;;;19.95;;
53479;SDS011;56133;51.012;-1.648;2022-12-07T03:42:39;40.88;;;19.27;;
53479;SDS011;56133;51.012;-1.648;2022-12-07T03:45:04;40.13;;;19.25;;
53479;SDS011;56133;51.012;-1.648;2022-12-07T03:50:31;43.10;;;21.27;;
53479;SDS011;56133;51.012;-1.648;2022-12-07T03:53:00;46.22;;;20.65;;
53479;SDS011;56133;51.012;-1.648;2022-12-07T03:58:08;43.03;;;20.40;;
53479;SDS011;56133;51.012;-1.648;2022-12-07T04:00:37;42.65;;;21.27;;
53479;SDS011;56133;51.012;-1.648;2022-12-07T04:03:03;48.92;;;21.60;;
53479;SDS011;56133;51.012;-1.648;2022-12-07T04:05:28;46.03;;;22.33;;
53479;SDS011;56133;51.012;-1.648;2022-12-07T04:07:54;44.67;;;21.65;;
53479;SDS011;56133;51.012;-1.648;2022-12-07T04:10:19;41.22;;;20.63;;
53479;SDS011;56133;51.012;-1.648;2022-12-07T04:12:45;40.80;;;21.42;;
53479;SDS011;56133;51.012;-1.648;2022-12-07T04:15:10;42.25;;;20.17;;
53479;SDS011;56133;51.012;-1.648;2022-12-07T04:17:36;38.50;;;17.77;;
53479;SDS011;56133;51.012;-1.648;2022-12-07T04:20:02;39.00;;;17.25;;
53479;SDS011;56133;51.012;-1.648;2022-12-07T04:22:29;37.20;;;17.55;;
53479;SDS011;56133;51.012;-1.648;2022-12-07T04:24:54;36.88;;;17.85;;
53479;SDS011;56133;51.012;-1.648;2022-12-07T04:27:20;36.30;;;18.50;;
53479;SDS011;56133;51.012;-1.648;2022-12-07T04:29:45;34.70;;;16.98;;
53479;SDS011;56133;51.012;-1.648;2022-12-07T04:32:10;42.70;;;16.67;;
53479;SDS011;56133;51.012;-1.648;2022-12-07T04:34:36;34.92;;;17.95;;
53479;SDS011;56133;51.012;-1.648;2022-12-07T04:37:02;40.60;;;18.45;;
53479;SDS011;56133;51.012;-1.648;2022-12-07T04:39:28;36.75;;;18.45;;
53479;SDS011;56133;51.012;-1.648;2022-12-07T04:41:55;43.53;;;19.10;;
53479;SDS011;56133;51.012;-1.648;2022-12-07T04:44:22;33.30;;;16.63;;
53479;SDS011;56133;51.012;-1.648;2022-12-07T04:46:48;38.40;;;17.88;;
53479;SDS011;56133;51.012;-1.648;2022-12-07T04:49:14;39.92;;;18.75;;
53479;SDS011;56133;51.012;-1.648;2022-12-07T04:51:41;38.28;;;18.70;;
53479;SDS011;56133;51.012;-1.648;2022-12-07T04:54:07;39.53;;;19.52;;
53479;SDS011;56133;51.012;-1.648;2022-12-07T04:56:33;37.17;;;19.83;;
53479;SDS011;56133;51.012;-1.648;2022-12-07T04:59:00;38.60;;;19.67;;
53479;SDS011;56133;51.012;-1.648;2022-12-07T05:01:26;40.55;;;20.27;;
53479;SDS011;56133;51.012;-1.648;2022-12-07T05:03:51;41.97;;;20.50;;
53479;SDS011;56133;51.012;-1.648;2022-12-07T05:06:17;41.83;;;19.98;;
53479;SDS011;56133;51.012;-1.648;2022-12-07T05:08:42;41.25;;;19.13;;
53479;SDS011;56133;51.012;-1.648;2022-12-07T05:11:09;40.38;;;20.55;;
53479;SDS011;56133;51.012;-1.648;2022-12-07T05:13:55;41.38;;;19.52;;
53479;SDS011;56133;51.012;-1.648;2022-12-07T05:16:20;39.13;;;20.35;;
53479;SDS011;56133;51.012;-1.648;2022-12-07T05:18:46;47.13;;;21.30;;
53479;SDS011;56133;51.012;-1.648;2022-12-07T05:21:11;44.65;;;22.58;;
53479;SDS011;56133;51.012;-1.648;2022-12-07T05:23:36;42.33;;;21.90;;
53479;SDS011;56133;51.012;-1.648;2022-12-07T05:26:02;36.05;;;18.88;;
53479;SDS011;56133;51.012;-1.648;2022-12-07T05:28:27;34.60;;;19.02;;
53479;SDS011;56133;51.012;-1.648;2022-12-07T05:30:52;38.13;;;19.00;;
53479;SDS011;56133;51.012;-1.648;2022-12-07T05:33:18;37.55;;;17.58;;
53479;SDS011;56133;51.012;-1.648;2022-12-07T05:35:43;35.20;;;17.42;;
53479;SDS011;56133;51.012;-1.648;2022-12-07T05:38:09;40.58;;;18.60;;
53479;SDS011;56133;51.012;-1.648;2022-12-07T08:04:19;59.25;;;24.58;;
53479;SDS011;56133;51.012;-1.648;2022-12-07T08:06:45;50.35;;;24.33;;
53479;SDS011;56133;51.012;-1.648;2022-12-07T08:09:10;52.50;;;24.08;;
53479;SDS011;56133;51.012;-1.648;2022-12-07T08:11:37;47.67;;;24.15;;
53479;SDS011;56133;51.012;-1.648;2022-12-07T08:14:02;54.42;;;25.33;;
53479;SDS011;56133;51.012;-1.648;2022-12-07T08:16:28;53.22;;;24.63;;
53479;SDS011;56133;51.012;-1.648;2022-12-07T08:18:53;55.53;;;25.45;;
53479;SDS011;56133;51.012;-1.648;2022-12-07T08:21:19;53.15;;;24.45;;
53479;SDS011;56133;51.012;-1.648;2022-12-07T08:23:45;48.20;;;24.25;;
53479;SDS011;56133;51.012;-1.648;2022-12-07T08:26:11;54.83;;;24.15;;
53479;SDS011;56133;51.012;-1.648;2022-12-07T08:28:38;48.65;;;23.13;;
53479;SDS011;56133;51.012;-1.648;2022-12-07T08:31:06;50.78;;;22.55;;
53479;SDS011;56133;51.012;-1.648;2022-12-07T08:33:42;50.95;;;23.17;;
53479;SDS011;56133;51.012;-1.648;2022-12-07T08:36:10;52.35;;;22.83;;
53479;SDS011;56133;51.012;-1.648;2022-12-07T08:38:37;50.85;;;24.60;;
53479;SDS011;56133;51.012;-1.648;2022-12-07T08:41:04;53.65;;;25.08;;
53479;SDS011;56133;51.012;-1.648;2022-12-07T08:43:30;54.45;;;24.48;;
53479;SDS011;56133;51.012;-1.648;2022-12-07T08:46:09;54.15;;;24.92;;
53479;SDS011;56133;51.012;-1.648;2022-12-07T08:51:33;58.85;;;25.65;;
53479;SDS011;56133;51.012;-1.648;2022-12-07T08:53:58;59.17;;;27.17;;
53479;SDS011;56133;51.012;-1.648;2022-12-07T08:56:29;63.05;;;28.15;;
53479;SDS011;56133;51.012;-1.648;2022-12-07T08:58:54;57.33;;;26.52;;
53479;SDS011;56133;51.012;-1.648;2022-12-07T09:01:20;62.03;;;28.33;;
53479;SDS011;56133;51.012;-1.648;2022-12-07T09:03:45;62.00;;;27.98;;
53479;SDS011;56133;51.012;-1.648;2022-12-07T09:06:10;62.85;;;29.00;;
53479;SDS011;56133;51.012;-1.648;2022-12-07T09:08:37;63.47;;;28.73;;
53479;SDS011;56133;51.012;-1.648;2022-12-07T09:11:07;57.60;;;27.20;;
53479;SDS011;56133;51.012;-1.648;2022-12-07T09:13:32;57.47;;;25.83;;
53479;SDS011;56133;51.012;-1.648;2022-12-07T09:15:58;54.70;;;26.20;;
53479;SDS011;56133;51.012;-1.648;2022-12-07T09:18:23;56.85;;;26.02;;
53479;SDS011;56133;51.012;-1.648;2022-12-07T09:20:50;55.42;;;27.10;;
53479;SDS011;56133;51.012;-1.648;2022-12-07T09:23:15;65.60;;;30.80;;
53479;SDS011;56133;51.012;-1.648;2022-12-07T09:25:41;57.95;;;26.65;;
53479;SDS011;56133;51.012;-1.648;2022-12-07T09:28:06;60.20;;;28.05;;
53479;SDS011;56133;51.012;-1.648;2022-12-07T09:30:32;57.17;;;25.63;;
53479;SDS011;56133;51.012;-1.648;2022-12-07T09:32:57;47.33;;;23.58;;
53479;SDS011;56133;51.012;-1.648;2022-12-07T09:35:23;60.17;;;25.92;;
53479;SDS011;56133;51.012;-1.648;2022-12-07T09:37:49;53.35;;;24.92;;
53479;SDS011;56133;51.012;-1.648;2022-12-07T09:40:16;55.00;;;26.10;;
53479;SDS011;56133;51.012;-1.648;2022-12-07T09:42:44;48.35;;;24.90;;
53479;SDS011;56133;51.012;-1.648;2022-12-07T09:45:16;52.80;;;25.35;;
53479;SDS011;56133;51.012;-1.648;2022-12-07T09:47:51;50.17;;;24.88;;
53479;SDS011;56133;51.012;-1.648;2022-12-07T09:50:19;49.28;;;24.38;;
53479;SDS011;56133;51.012;-1.648;2022-12-07T09:52:48;46.85;;;24.13;;
53479;SDS011;56133;51.012;-1.648;2022-12-07T09:55:16;50.00;;;23.23;;
53479;SDS011;56133;51.012;-1.648;2022-12-07T09:57:48;43.65;;;21.58;;
53479;SDS011;56133;51.012;-1.648;2022-12-07T10:00:16;41.78;;;20.23;;
53479;SDS011;56133;51.012;-1.648;2022-12-07T10:02:46;44.45;;;21.00;;
53479;SDS011;56133;51.012;-1.648;2022-12-07T10:05:19;43.63;;;21.45;;
53479;SDS011;56133;51.012;-1.648;2022-12-07T10:07:49;39.47;;;20.23;;
53479;SDS011;56133;51.012;-1.648;2022-12-07T10:10:17;41.85;;;22.05;;
53479;SDS011;56133;51.012;-1.648;2022-12-07T10:12:57;44.88;;;22.38;;
53479;SDS011;56133;51.012;-1.648;2022-12-07T10:23:29;41.47;;;21.50;;
53479;SDS011;56133;51.012;-1.648;2022-12-07T10:25:55;45.67;;;22.17;;
53479;SDS011;56133;51.012;-1.648;2022-12-07T10:28:20;43.08;;;20.83;;
53479;SDS011;56133;51.012;-1.648;2022-12-07T10:36:19;39.38;;;19.52;;
53479;SDS011;56133;51.012;-1.648;2022-12-07T10:41:25;38.70;;;19.77;;
53479;SDS011;56133;51.012;-1.648;2022-12-07T10:43:52;35.97;;;20.08;;
53479;SDS011;56133;51.012;-1.648;2022-12-07T10:49:25;36.88;;;19.38;;
53479;SDS011;56133;51.012;-1.648;2022-12-07T10:55:06;35.72;;;18.20;;
53479;SDS011;56133;51.012;-1.648;2022-12-07T11:01:19;35.35;;;17.65;;
53479;SDS011;56133;51.012;-1.648;2022-12-07T11:03:36;37.88;;;16.67;;
53479;SDS011;56133;51.012;-1.648;2022-12-07T11:23:13;27.15;;;13.88;;
53479;SDS011;56133;51.012;-1.648;2022-12-07T11:26:07;26.15;;;13.82;;
53479;SDS011;56133;51.012;-1.648;2022-12-07T11:37:31;26.70;;;13.50;;
53479;SDS011;56133;51.012;-1.648;2022-12-07T11:40:12;25.92;;;13.10;;
53479;SDS011;56133;51.012;-1.648;2022-12-07T11:45:34;27.15;;;13.02;;
53479;SDS011;56133;51.012;-1.648;2022-12-07T11:48:09;26.83;;;13.88;;
53479;SDS011;56133;51.012;-1.648;2022-12-07T11:50:43;21.40;;;11.60;;
53479;SDS011;56133;51.012;-1.648;2022-12-07T11:56:03;26.38;;;12.13;;
53479;SDS011;56133;51.012;-1.648;2022-12-07T12:06:35;23.45;;;11.30;;
53479;SDS011;56133;51.012;-1.648;2022-12-07T12:09:29;22.52;;;10.98;;
53479;SDS011;56133;51.012;-1.648;2022-12-07T12:20:53;20.70;;;10.43;;
53479;SDS011;56133;51.012;-1.648;2022-12-07T12:23:27;21.50;;;11.02;;
53479;SDS011;56133;51.012;-1.648;2022-12-07T12:25:59;25.02;;;11.65;;
53479;SDS011;56133;51.012;-1.648;2022-12-07T12:31:14;15.02;;;8.05;;
53479;SDS011;56133;51.012;-1.648;2022-12-07T12:39:26;24.65;;;9.65;;
53479;SDS011;56133;51.012;-1.648;2022-12-07T12:46:51;18.40;;;9.63;;
53479;SDS011;56133;51.012;-1.648;2022-12-07T12:54:23;15.27;;;7.45;;
53479;SDS011;56133;51.012;-1.648;2022-12-07T12:56:52;15.65;;;7.85;;
53479;SDS011;56133;51.012;-1.648;2022-12-07T12:59:28;10.98;;;6.03;;
53479;SDS011;56133;51.012;-1.648;2022-12-07T13:01:58;14.93;;;6.60;;
53479;SDS011;56133;51.012;-1.648;2022-12-07T13:04:59;14.55;;;6.63;;
53479;SDS011;56133;51.012;-1.648;2022-12-07T13:10:36;11.15;;;5.63;;
53479;SDS011;56133;51.012;-1.648;2022-12-07T13:15:43;11.93;;;5.40;;
53479;SDS011;56133;51.012;-1.648;2022-12-07T13:23:29;12.93;;;5.00;;
53479;SDS011;56133;51.012;-1.648;2022-12-07T13:26:22;10.05;;;5.15;;
53479;SDS011;56133;51.012;-1.648;2022-12-07T13:28:52;12.35;;;5.45;;
53479;SDS011;56133;51.012;-1.648;2022-12-07T13:31:47;15.32;;;5.07;;
53479;SDS011;56133;51.012;-1.648;2022-12-07T13:37:09;11.75;;;4.15;;
53479;SDS011;56133;51.012;-1.648;2022-12-07T13:39:57;12.45;;;4.30;;
53479;SDS011;56133;51.012;-1.648;2022-12-07T13:45:25;10.18;;;3.33;;
53479;SDS011;56133;51.012;-1.648;2022-12-07T13:48:14;11.02;;;4.07;;
53479;SDS011;56133;51.012;-1.648;2022-12-07T13:50:40;12.13;;;4.05;;
53479;SDS011;56133;51.012;-1.648;2022-12-07T13:53:07;9.75;;;4.30;;
53479;SDS011;56133;51.012;-1.648;2022-12-07T13:55:43;8.90;;;4.00;;
53479;SDS011;56133;51.012;-1.648;2022-12-07T13:58:10;9.02;;;3.80;;
53479;SDS011;56133;51.012;-1.648;2022-12-07T14:00:36;10.57;;;3.95;;
53479;SDS011;56133;51.012;-1.648;2022-12-07T14:03:03;9.63;;;3.92;;
53479;SDS011;56133;51.012;-1.648;2022-12-07T14:06:02;10.18;;;4.00;;
53479;SDS011;56133;51.012;-1.648;2022-12-07T14:08:33;9.18;;;4.25;;
53479;SDS011;56133;51.012;-1.648;2022-12-07T14:10:58;10.55;;;4.60;;
53479;SDS011;56133;51.012;-1.648;2022-12-07T14:16:00;11.85;;;4.80;;
53479;SDS011;56133;51.012;-1.648;2022-12-07T14:18:35;11.27;;;4.93;;
53479;SDS011;56133;51.012;-1.648;2022-12-07T14:23:32;9.15;;;4.45;;
53479;SDS011;56133;51.012;-1.648;2022-12-07T14:28:52;11.05;;;5.15;;
53479;SDS011;56133;51.012;-1.648;2022-12-07T14:31:18;13.25;;;5.03;;
53479;SDS011;56133;51.012;-1.648;2022-12-07T14:33:48;9.60;;;4.85;;
53479;SDS011;56133;51.012;-1.648;2022-12-07T14:36:14;16.25;;;4.75;;
53479;SDS011;56133;51.012;-1.648;2022-12-07T14:38:40;9.10;;;4.78;;
53479;SDS011;56133;51.012;-1.648;2022-12-07T14:41:06;10.40;;;4.50;;
53479;SDS011;56133;51.012;-1.648;2022-12-07T14:43:58;9.18;;;4.60;;
53479;SDS011;56133;51.012;-1.648;2022-12-07T14:46:23;11.55;;;4.35;;
53479;SDS011;56133;51.012;-1.648;2022-12-07T14:48:49;10.32;;;4.80;;
53479;SDS011;56133;51.012;-1.648;2022-12-07T14:51:14;12.60;;;4.20;;
53479;SDS011;56133;51.012;-1.648;2022-12-07T14:53:41;8.75;;;4.40;;
53479;SDS011;56133;51.012;-1.648;2022-12-07T14:56:11;13.38;;;4.53;;
53479;SDS011;56133;51.012;-1.648;2022-12-07T14:58:36;10.10;;;4.97;;
53479;SDS011;56133;51.012;-1.648;2022-12-07T15:01:02;10.95;;;5.05;;
53479;SDS011;56133;51.012;-1.648;2022-12-07T15:03:28;12.27;;;5.13;;
53479;SDS011;56133;51.012;-1.648;2022-12-07T15:05:54;11.02;;;5.15;;
53479;SDS011;56133;51.012;-1.648;2022-12-07T15:08:20;14.45;;;5.43;;
53479;SDS011;56133;51.012;-1.648;2022-12-07T15:10:45;12.25;;;6.22;;
53479;SDS011;56133;51.012;-1.648;2022-12-07T15:13:10;13.00;;;6.00;;
53479;SDS011;56133;51.012;-1.648;2022-12-07T15:15:55;11.68;;;6.20;;
53479;SDS011;56133;51.012;-1.648;2022-12-07T15:18:21;16.08;;;7.22;;
53479;SDS011;56133;51.012;-1.648;2022-12-07T15:20:47;13.43;;;7.38;;
53479;SDS011;56133;51.012;-1.648;2022-12-07T15:23:13;16.10;;;7.47;;
53479;SDS011;56133;51.012;-1.648;2022-12-07T15:25:42;17.70;;;7.65;;
53479;SDS011;56133;51.012;-1.648;2022-12-07T15:28:09;16.20;;;7.68;;
53479;SDS011;56133;51.012;-1.648;2022-12-07T15:30:36;16.80;;;7.50;;
53479;SDS011;56133;51.012;-1.648;2022-12-07T15:33:05;15.77;;;7.30;;
53479;SDS011;56133;51.012;-1.648;2022-12-07T15:35:31;28.25;;;15.10;;
53479;SDS011;56133;51.012;-1.648;2022-12-07T15:37:56;30.05;;;18.98;;
53479;SDS011;56133;51.012;-1.648;2022-12-07T15:40:22;25.33;;;16.70;;
53479;SDS011;56133;51.012;-1.648;2022-12-07T15:42:47;20.38;;;12.52;;
53479;SDS011;56133;51.012;-1.648;2022-12-07T15:45:12;27.83;;;16.55;;
53479;SDS011;56133;51.012;-1.648;2022-12-07T15:47:39;28.10;;;14.70;;
53479;SDS011;56133;51.012;-1.648;2022-12-07T15:50:08;17.65;;;7.85;;
53479;SDS011;56133;51.012;-1.648;2022-12-07T15:52:35;20.67;;;10.30;;
53479;SDS011;56133;51.012;-1.648;2022-12-07T15:55:00;35.28;;;22.45;;
53479;SDS011;56133;51.012;-1.648;2022-12-07T15:57:28;23.70;;;14.50;;
53479;SDS011;56133;51.012;-1.648;2022-12-07T15:59:54;31.05;;;20.45;;
53479;SDS011;56133;51.012;-1.648;2022-12-07T16:02:20;23.40;;;14.13;;
53479;SDS011;56133;51.012;-1.648;2022-12-07T16:04:45;16.45;;;8.70;;
53479;SDS011;56133;51.012;-1.648;2022-12-07T16:07:11;18.15;;;8.88;;
53479;SDS011;56133;51.012;-1.648;2022-12-07T16:09:37;19.25;;;8.93;;
53479;SDS011;56133;51.012;-1.648;2022-12-07T16:12:03;16.05;;;8.68;;
53479;SDS011;56133;51.012;-1.648;2022-12-07T16:14:28;20.30;;;9.30;;
53479;SDS011;56133;51.012;-1.648;2022-12-07T16:16:54;16.38;;;8.55;;
53479;SDS011;56133;51.012;-1.648;2022-12-07T16:19:19;20.08;;;8.95;;
53479;SDS011;56133;51.012;-1.648;2022-12-07T16:21:45;18.90;;;9.43;;
53479;SDS011;56133;51.012;-1.648;2022-12-07T16:24:10;21.85;;;10.13;;
53479;SDS011;56133;51.012;-1.648;2022-12-07T16:26:37;19.52;;;9.68;;
53479;SDS011;56133;51.012;-1.648;2022-12-07T16:29:03;20.38;;;10.65;;
53479;SDS011;56133;51.012;-1.648;2022-12-07T16:31:29;17.42;;;10.25;;
53479;SDS011;56133;51.012;-1.648;2022-12-07T16:33:55;18.48;;;9.13;;
53479;SDS011;56133;51.012;-1.648;2022-12-07T16:36:22;23.00;;;10.32;;
53479;SDS011;56133;51.012;-1.648;2022-12-07T16:38:49;17.83;;;9.93;;
53479;SDS011;56133;51.012;-1.648;2022-12-07T16:41:15;24.48;;;11.10;;
53479;SDS011;56133;51.012;-1.648;2022-12-07T16:43:40;26.17;;;11.55;;
53479;SDS011;56133;51.012;-1.648;2022-12-07T16:46:06;20.08;;;12.32;;
53479;SDS011;56133;51.012;-1.648;2022-12-07T16:48:31;30.83;;;14.57;;
53479;SDS011;56133;51.012;-1.648;2022-12-07T16:51:02;26.70;;;14.02;;
53479;SDS011;56133;51.012;-1.648;2022-12-07T16:53:38;28.33;;;11.82;;
53479;SDS011;56133;51.012;-1.648;2022-12-07T16:56:12;25.77;;;11.45;;
53479;SDS011;56133;51.012;-1.648;2022-12-07T16:58:39;26.13;;;11.50;;
53479;SDS011;56133;51.012;-1.648;2022-12-07T17:01:09;25.65;;;11.95;;
53479;SDS011;56133;51.012;-1.648;2022-12-07T17:03:36;22.73;;;11.25;;
53479;SDS011;56133;51.012;-1.648;2022-12-07T17:06:01;24.48;;;11.85;;
53479;SDS011;56133;51.012;-1.648;2022-12-07T17:08:27;25.88;;;11.82;;
53479;SDS011;56133;51.012;-1.648;2022-12-07T17:10:52;22.58;;;12.52;;
53479;SDS011;56133;51.012;-1.648;2022-12-07T17:13:17;28.05;;;12.38;;
53479;SDS011;56133;51.012;-1.648;2022-12-07T17:16:03;21.08;;;12.25;;
53479;SDS011;56133;51.012;-1.648;2022-12-07T17:18:31;30.60;;;14.85;;
53479;SDS011;56133;51.012;-1.648;2022-12-07T17:21:02;25.55;;;12.88;;
53479;SDS011;56133;51.012;-1.648;2022-12-07T17:23:33;29.63;;;14.80;;
53479;SDS011;56133;51.012;-1.648;2022-12-07T17:28:33;29.58;;;15.10;;
53479;SDS011;56133;51.012;-1.648;2022-12-07T17:30:59;31.33;;;15.52;;
53479;SDS011;56133;51.012;-1.648;2022-12-07T17:33:24;34.08;;;15.60;;
53479;SDS011;56133;51.012;-1.648;2022-12-07T17:35:50;30.23;;;14.50;;
53479;SDS011;56133;51.012;-1.648;2022-12-07T17:38:15;32.33;;;15.52;;
53479;SDS011;56133;51.012;-1.648;2022-12-07T17:40:41;33.85;;;16.75;;
53479;SDS011;56133;51.012;-1.648;2022-12-07T17:43:06;33.55;;;16.45;;
53479;SDS011;56133;51.012;-1.648;2022-12-07T17:45:32;39.80;;;16.10;;
53479;SDS011;56133;51.012;-1.648;2022-12-07T17:47:57;34.85;;;16.63;;
53479;SDS011;56133;51.012;-1.648;2022-12-07T17:50:22;42.85;;;18.73;;
53479;SDS011;56133;51.012;-1.648;2022-12-07T17:53:09;58.17;;;28.50;;
53479;SDS011;56133;51.012;-1.648;2022-12-07T17:55:36;54.42;;;26.38;;
53479;SDS011;56133;51.012;-1.648;2022-12-07T17:58:02;47.47;;;25.33;;
53479;SDS011;56133;51.012;-1.648;2022-12-07T18:00:28;66.15;;;34.28;;
53479;SDS011;56133;51.012;-1.648;2022-12-07T18:02:54;52.90;;;26.30;;
53479;SDS011;56133;51.012;-1.648;2022-12-07T18:05:19;62.35;;;32.03;;
53479;SDS011;56133;51.012;-1.648;2022-12-07T18:07:45;58.80;;;31.75;;
53479;SDS011;56133;51.012;-1.648;2022-12-07T18:10:10;52.55;;;27.70;;
53479;SDS011;56133;51.012;-1.648;2022-12-07T18:12:36;58.38;;;30.55;;
53479;SDS011;56133;51.012;-1.648;2022-12-07T18:15:04;47.58;;;26.27;;
53479;SDS011;56133;51.012;-1.648;2022-12-07T18:17:30;41.83;;;24.58;;
53479;SDS011;56133;51.012;-1.648;2022-12-07T18:19:56;45.42;;;23.52;;
53479;SDS011;56133;51.012;-1.648;2022-12-07T18:22:21;42.47;;;21.73;;
53479;SDS011;56133;51.012;-1.648;2022-12-07T18:24:46;31.45;;;17.70;;
53479;SDS011;56133;51.012;-1.648;2022-12-07T18:27:12;36.30;;;18.08;;
53479;SDS011;56133;51.012;-1.648;2022-12-07T18:29:37;32.65;;;16.83;;
53479;SDS011;56133;51.012;-1.648;2022-12-07T18:32:03;59.00;;;35.92;;
53479;SDS011;56133;51.012;-1.648;2022-12-07T18:34:29;50.45;;;32.45;;
53479;SDS011;56133;51.012;-1.648;2022-12-07T18:36:55;43.25;;;24.90;;
53479;SDS011;56133;51.012;-1.648;2022-12-07T18:39:20;38.45;;;24.23;;
53479;SDS011;56133;51.012;-1.648;2022-12-07T18:41:46;46.35;;;27.10;;
53479;SDS011;56133;51.012;-1.648;2022-12-07T18:44:12;83.35;;;41.90;;
53479;SDS011;56133;51.012;-1.648;2022-12-07T18:46:39;45.83;;;24.90;;
53479;SDS011;56133;51.012;-1.648;2022-12-07T18:49:06;56.05;;;27.40;;
53479;SDS011;56133;51.012;-1.648;2022-12-07T18:51:32;34.47;;;17.50;;
53479;SDS011;56133;51.012;-1.648;2022-12-07T18:53:57;32.20;;;17.85;;
53479;SDS011;56133;51.012;-1.648;2022-12-07T18:56:24;30.52;;;15.23;;
53479;SDS011;56133;51.012;-1.648;2022-12-07T18:58:51;30.10;;;14.57;;
53479;SDS011;56133;51.012;-1.648;2022-12-07T19:01:37;31.30;;;14.52;;
53479;SDS011;56133;51.012;-1.648;2022-12-07T19:04:03;27.33;;;13.88;;
53479;SDS011;56133;51.012;-1.648;2022-12-07T19:06:30;33.03;;;16.58;;
53479;SDS011;56133;51.012;-1.648;2022-12-07T19:08:56;35.05;;;16.23;;
53479;SDS011;56133;51.012;-1.648;2022-12-07T19:11:22;28.90;;;14.63;;
53479;SDS011;56133;51.012;-1.648;2022-12-07T19:14:08;31.58;;;15.23;;
53479;SDS011;56133;51.012;-1.648;2022-12-07T19:16:34;31.38;;;14.27;;
53479;SDS011;56133;51.012;-1.648;2022-12-07T19:18:59;28.58;;;14.15;;
53479;SDS011;56133;51.012;-1.648;2022-12-07T19:21:25;30.95;;;15.20;;
53479;SDS011;56133;51.012;-1.648;2022-12-07T19:23:51;32.55;;;14.73;;
53479;SDS011;56133;51.012;-1.648;2022-12-07T19:26:17;32.35;;;15.10;;
53479;SDS011;56133;51.012;-1.648;2022-12-07T19:28:42;36.58;;;14.95;;
53479;SDS011;56133;51.012;-1.648;2022-12-07T19:31:08;28.85;;;14.50;;